sensor_id;sensor_type;location;lat;lon;timestamp;P1;durP1;ratioP1;P2;durP2;ratioP2
68942;SDS011;60852;52.190;4.422;2023-04-03T00:01:19;4.30;;;4.26;;
68942;SDS011;60852;52.190;4.422;2023-04-03T00:03:45;3.97;;;3.94;;
68942;SDS011;60852;52.190;4.422;2023-04-03T00:06:11;3.86;;;3.84;;
68942;SDS011;60852;52.190;4.422;2023-04-03T00:08:37;4.09;;;4.07;;
68942;SDS011;60852;52.190;4.422;2023-04-03T00:11:04;4.07;;;4.02;;
68942;SDS011;60852;52.190;4.422;2023-04-03T00:13:31;4.03;;;4.01;;
68942;SDS011;60852;52.190;4.422;2023-04-03T00:15:57;3.96;;;3.93;;
68942;SDS011;60852;52.190;4.422;2023-04-03T00:18:23;4.08;;;4.02;;
68942;SDS011;60852;52.190;4.422;2023-04-03T00:20:48;4.09;;;4.00;;
68942;SDS011;60852;52.190;4.422;2023-04-03T00:23:14;4.04;;;4.00;;
68942;SDS011;60852;52.190;4.422;2023-04-03T00:25:40;3.88;;;3.85;;
68942;SDS011;60852;52.190;4.422;2023-04-03T00:28:05;4.25;;;4.22;;
68942;SDS011;60852;52.190;4.422;2023-04-03T00:30:31;3.93;;;3.89;;
68942;SDS011;60852;52.190;4.422;2023-04-03T00:32:57;4.07;;;4.03;;
68942;SDS011;60852;52.190;4.422;2023-04-03T00:35:23;4.40;;;4.37;;
68942;SDS011;60852;52.190;4.422;2023-04-03T00:37:52;4.30;;;4.27;;
68942;SDS011;60852;52.190;4.422;2023-04-03T00:40:19;3.87;;;3.84;;
68942;SDS011;60852;52.190;4.422;2023-04-03T00:42:47;3.66;;;3.62;;
68942;SDS011;60852;52.190;4.422;2023-04-03T00:47:44;3.65;;;3.63;;
68942;SDS011;60852;52.190;4.422;2023-04-03T00:50:10;3.47;;;3.44;;
68942;SDS011;60852;52.190;4.422;2023-04-03T00:52:36;3.41;;;3.38;;
68942;SDS011;60852;52.190;4.422;2023-04-03T00:55:04;3.59;;;3.56;;
68942;SDS011;60852;52.190;4.422;2023-04-03T00:57:33;3.40;;;3.38;;
68942;SDS011;60852;52.190;4.422;2023-04-03T01:00:07;3.43;;;3.40;;
68942;SDS011;60852;52.190;4.422;2023-04-03T01:02:37;3.11;;;3.10;;
68942;SDS011;60852;52.190;4.422;2023-04-03T01:05:05;3.10;;;3.06;;
68942;SDS011;60852;52.190;4.422;2023-04-03T01:07:32;3.29;;;3.25;;
68942;SDS011;60852;52.190;4.422;2023-04-03T01:10:04;3.15;;;3.11;;
68942;SDS011;60852;52.190;4.422;2023-04-03T01:12:35;2.71;;;2.69;;
68942;SDS011;60852;52.190;4.422;2023-04-03T01:15:05;2.83;;;2.80;;
68942;SDS011;60852;52.190;4.422;2023-04-03T01:17:35;3.03;;;3.01;;
68942;SDS011;60852;52.190;4.422;2023-04-03T01:25:18;3.20;;;3.18;;
68942;SDS011;60852;52.190;4.422;2023-04-03T01:27:44;3.30;;;3.28;;
68942;SDS011;60852;52.190;4.422;2023-04-03T01:30:10;3.40;;;3.37;;
68942;SDS011;60852;52.190;4.422;2023-04-03T01:32:37;3.58;;;3.55;;
68942;SDS011;60852;52.190;4.422;2023-04-03T01:35:04;3.34;;;3.33;;
68942;SDS011;60852;52.190;4.422;2023-04-03T01:37:32;3.18;;;3.18;;
68942;SDS011;60852;52.190;4.422;2023-04-03T01:39:57;2.96;;;2.95;;
68942;SDS011;60852;52.190;4.422;2023-04-03T01:42:23;2.89;;;2.87;;
68942;SDS011;60852;52.190;4.422;2023-04-03T01:44:48;2.73;;;2.70;;
68942;SDS011;60852;52.190;4.422;2023-04-03T01:47:14;2.52;;;2.50;;
68942;SDS011;60852;52.190;4.422;2023-04-03T01:49:39;2.39;;;2.38;;
68942;SDS011;60852;52.190;4.422;2023-04-03T01:52:05;2.53;;;2.51;;
68942;SDS011;60852;52.190;4.422;2023-04-03T01:54:30;2.61;;;2.59;;
68942;SDS011;60852;52.190;4.422;2023-04-03T01:56:56;2.54;;;2.53;;
68942;SDS011;60852;52.190;4.422;2023-04-03T01:59:21;2.57;;;2.54;;
68942;SDS011;60852;52.190;4.422;2023-04-03T02:01:46;2.57;;;2.54;;
68942;SDS011;60852;52.190;4.422;2023-04-03T02:04:12;2.46;;;2.43;;
68942;SDS011;60852;52.190;4.422;2023-04-03T02:06:38;2.68;;;2.65;;
68942;SDS011;60852;52.190;4.422;2023-04-03T02:09:03;2.67;;;2.61;;
68942;SDS011;60852;52.190;4.422;2023-04-03T02:11:29;2.49;;;2.44;;
68942;SDS011;60852;52.190;4.422;2023-04-03T02:13:55;2.81;;;2.77;;
68942;SDS011;60852;52.190;4.422;2023-04-03T02:16:20;2.65;;;2.58;;
68942;SDS011;60852;52.190;4.422;2023-04-03T02:18:45;2.74;;;2.65;;
68942;SDS011;60852;52.190;4.422;2023-04-03T02:21:11;2.83;;;2.75;;
68942;SDS011;60852;52.190;4.422;2023-04-03T02:23:36;2.67;;;2.60;;
68942;SDS011;60852;52.190;4.422;2023-04-03T02:26:03;2.53;;;2.48;;
68942;SDS011;60852;52.190;4.422;2023-04-03T02:28:30;2.44;;;2.41;;
68942;SDS011;60852;52.190;4.422;2023-04-03T02:30:55;2.62;;;2.59;;
68942;SDS011;60852;52.190;4.422;2023-04-03T02:33:21;2.55;;;2.53;;
68942;SDS011;60852;52.190;4.422;2023-04-03T02:35:46;2.29;;;2.28;;
68942;SDS011;60852;52.190;4.422;2023-04-03T02:38:18;2.74;;;2.73;;
68942;SDS011;60852;52.190;4.422;2023-04-03T02:40:43;2.62;;;2.61;;
68942;SDS011;60852;52.190;4.422;2023-04-03T02:43:09;2.61;;;2.59;;
68942;SDS011;60852;52.190;4.422;2023-04-03T02:45:35;2.69;;;2.68;;
68942;SDS011;60852;52.190;4.422;2023-04-03T02:48:00;2.57;;;2.56;;
68942;SDS011;60852;52.190;4.422;2023-04-03T02:50:26;2.64;;;2.63;;
68942;SDS011;60852;52.190;4.422;2023-04-03T02:52:51;2.94;;;2.91;;
68942;SDS011;60852;52.190;4.422;2023-04-03T02:55:17;2.86;;;2.81;;
68942;SDS011;60852;52.190;4.422;2023-04-03T02:57:42;2.67;;;2.62;;
68942;SDS011;60852;52.190;4.422;2023-04-03T03:00:08;2.78;;;2.75;;
68942;SDS011;60852;52.190;4.422;2023-04-03T03:02:34;3.08;;;3.04;;
68942;SDS011;60852;52.190;4.422;2023-04-03T03:05:00;2.72;;;2.70;;
68942;SDS011;60852;52.190;4.422;2023-04-03T03:07:25;2.85;;;2.83;;
68942;SDS011;60852;52.190;4.422;2023-04-03T03:09:51;2.89;;;2.87;;
68942;SDS011;60852;52.190;4.422;2023-04-03T03:12:16;2.81;;;2.79;;
68942;SDS011;60852;52.190;4.422;2023-04-03T03:14:46;3.07;;;3.05;;
68942;SDS011;60852;52.190;4.422;2023-04-03T03:17:12;3.16;;;3.13;;
68942;SDS011;60852;52.190;4.422;2023-04-03T03:19:38;3.11;;;3.09;;
68942;SDS011;60852;52.190;4.422;2023-04-03T03:22:03;3.16;;;3.15;;
68942;SDS011;60852;52.190;4.422;2023-04-03T03:24:29;3.14;;;3.14;;
68942;SDS011;60852;52.190;4.422;2023-04-03T03:26:54;3.41;;;3.39;;
68942;SDS011;60852;52.190;4.422;2023-04-03T03:29:20;3.40;;;3.36;;
68942;SDS011;60852;52.190;4.422;2023-04-03T03:31:45;3.48;;;3.41;;
68942;SDS011;60852;52.190;4.422;2023-04-03T03:34:11;3.68;;;3.62;;
68942;SDS011;60852;52.190;4.422;2023-04-03T03:36:37;3.60;;;3.52;;
68942;SDS011;60852;52.190;4.422;2023-04-03T03:39:02;3.40;;;3.32;;
68942;SDS011;60852;52.190;4.422;2023-04-03T03:41:28;3.53;;;3.47;;
68942;SDS011;60852;52.190;4.422;2023-04-03T03:43:53;3.33;;;3.26;;
68942;SDS011;60852;52.190;4.422;2023-04-03T03:46:19;3.44;;;3.40;;
68942;SDS011;60852;52.190;4.422;2023-04-03T03:48:44;3.67;;;3.63;;
68942;SDS011;60852;52.190;4.422;2023-04-03T03:51:10;3.46;;;3.41;;
68942;SDS011;60852;52.190;4.422;2023-04-03T03:53:35;3.93;;;3.89;;
68942;SDS011;60852;52.190;4.422;2023-04-03T03:56:01;3.66;;;3.63;;
68942;SDS011;60852;52.190;4.422;2023-04-03T03:58:27;3.89;;;3.83;;
68942;SDS011;60852;52.190;4.422;2023-04-03T04:00:52;3.44;;;3.40;;
68942;SDS011;60852;52.190;4.422;2023-04-03T04:03:18;3.74;;;3.71;;
68942;SDS011;60852;52.190;4.422;2023-04-03T04:05:43;3.75;;;3.73;;
68942;SDS011;60852;52.190;4.422;2023-04-03T04:08:09;3.56;;;3.54;;
68942;SDS011;60852;52.190;4.422;2023-04-03T04:10:35;3.69;;;3.66;;
68942;SDS011;60852;52.190;4.422;2023-04-03T04:13:03;3.57;;;3.54;;
68942;SDS011;60852;52.190;4.422;2023-04-03T04:15:28;3.91;;;3.89;;
68942;SDS011;60852;52.190;4.422;2023-04-03T04:17:54;3.57;;;3.57;;
68942;SDS011;60852;52.190;4.422;2023-04-03T04:20:20;3.69;;;3.66;;
68942;SDS011;60852;52.190;4.422;2023-04-03T04:22:45;3.81;;;3.78;;
68942;SDS011;60852;52.190;4.422;2023-04-03T04:25:11;3.83;;;3.79;;
68942;SDS011;60852;52.190;4.422;2023-04-03T04:27:37;3.62;;;3.60;;
68942;SDS011;60852;52.190;4.422;2023-04-03T04:30:03;3.95;;;3.95;;
68942;SDS011;60852;52.190;4.422;2023-04-03T04:32:29;3.87;;;3.87;;
68942;SDS011;60852;52.190;4.422;2023-04-03T04:34:55;3.90;;;3.89;;
68942;SDS011;60852;52.190;4.422;2023-04-03T04:37:20;3.83;;;3.83;;
68942;SDS011;60852;52.190;4.422;2023-04-03T04:39:46;5.11;;;5.09;;
68942;SDS011;60852;52.190;4.422;2023-04-03T04:42:11;4.39;;;4.37;;
68942;SDS011;60852;52.190;4.422;2023-04-03T04:44:40;4.61;;;4.60;;
68942;SDS011;60852;52.190;4.422;2023-04-03T04:47:06;3.86;;;3.86;;
68942;SDS011;60852;52.190;4.422;2023-04-03T04:49:31;3.98;;;3.96;;
68942;SDS011;60852;52.190;4.422;2023-04-03T04:51:57;3.96;;;3.92;;
68942;SDS011;60852;52.190;4.422;2023-04-03T04:54:22;4.46;;;4.44;;
68942;SDS011;60852;52.190;4.422;2023-04-03T04:56:48;3.99;;;3.98;;
68942;SDS011;60852;52.190;4.422;2023-04-03T04:59:13;4.11;;;4.10;;
68942;SDS011;60852;52.190;4.422;2023-04-03T05:01:39;4.28;;;4.26;;
68942;SDS011;60852;52.190;4.422;2023-04-03T05:04:04;4.11;;;4.10;;
68942;SDS011;60852;52.190;4.422;2023-04-03T05:06:30;4.35;;;4.33;;
68942;SDS011;60852;52.190;4.422;2023-04-03T05:08:57;4.45;;;4.41;;
68942;SDS011;60852;52.190;4.422;2023-04-03T05:11:23;4.53;;;4.51;;
68942;SDS011;60852;52.190;4.422;2023-04-03T05:13:48;4.32;;;4.32;;
68942;SDS011;60852;52.190;4.422;2023-04-03T05:16:14;4.70;;;4.69;;
68942;SDS011;60852;52.190;4.422;2023-04-03T05:18:40;4.77;;;4.74;;
68942;SDS011;60852;52.190;4.422;2023-04-03T05:21:05;4.93;;;4.93;;
68942;SDS011;60852;52.190;4.422;2023-04-03T05:23:30;5.05;;;5.04;;
68942;SDS011;60852;52.190;4.422;2023-04-03T05:25:56;5.15;;;5.12;;
68942;SDS011;60852;52.190;4.422;2023-04-03T05:28:22;4.80;;;4.78;;
68942;SDS011;60852;52.190;4.422;2023-04-03T05:30:54;4.71;;;4.69;;
68942;SDS011;60852;52.190;4.422;2023-04-03T05:33:23;4.84;;;4.78;;
68942;SDS011;60852;52.190;4.422;2023-04-03T05:35:51;4.59;;;4.55;;
68942;SDS011;60852;52.190;4.422;2023-04-03T05:38:17;4.97;;;4.93;;
68942;SDS011;60852;52.190;4.422;2023-04-03T05:40:43;5.13;;;5.10;;
68942;SDS011;60852;52.190;4.422;2023-04-03T05:43:08;5.02;;;4.99;;
68942;SDS011;60852;52.190;4.422;2023-04-03T05:45:34;4.78;;;4.77;;
68942;SDS011;60852;52.190;4.422;2023-04-03T05:48:00;4.65;;;4.65;;
68942;SDS011;60852;52.190;4.422;2023-04-03T05:50:25;5.15;;;5.15;;
68942;SDS011;60852;52.190;4.422;2023-04-03T05:52:51;4.76;;;4.75;;
68942;SDS011;60852;52.190;4.422;2023-04-03T05:55:21;4.44;;;4.43;;
68942;SDS011;60852;52.190;4.422;2023-04-03T05:57:47;4.92;;;4.90;;
68942;SDS011;60852;52.190;4.422;2023-04-03T06:00:13;4.99;;;4.98;;
68942;SDS011;60852;52.190;4.422;2023-04-03T06:02:42;5.17;;;5.15;;
68942;SDS011;60852;52.190;4.422;2023-04-03T06:05:08;4.84;;;4.82;;
68942;SDS011;60852;52.190;4.422;2023-04-03T06:07:34;5.11;;;5.11;;
68942;SDS011;60852;52.190;4.422;2023-04-03T06:10:00;4.75;;;4.75;;
68942;SDS011;60852;52.190;4.422;2023-04-03T06:12:27;5.11;;;5.10;;
68942;SDS011;60852;52.190;4.422;2023-04-03T06:14:54;4.89;;;4.86;;
68942;SDS011;60852;52.190;4.422;2023-04-03T06:17:20;5.05;;;5.03;;
68942;SDS011;60852;52.190;4.422;2023-04-03T06:19:46;4.92;;;4.90;;
68942;SDS011;60852;52.190;4.422;2023-04-03T06:22:11;4.79;;;4.79;;
68942;SDS011;60852;52.190;4.422;2023-04-03T06:24:37;4.76;;;4.75;;
68942;SDS011;60852;52.190;4.422;2023-04-03T06:27:03;5.02;;;4.99;;
68942;SDS011;60852;52.190;4.422;2023-04-03T06:29:29;4.93;;;4.87;;
68942;SDS011;60852;52.190;4.422;2023-04-03T06:31:55;5.20;;;5.14;;
68942;SDS011;60852;52.190;4.422;2023-04-03T06:34:20;4.92;;;4.89;;
68942;SDS011;60852;52.190;4.422;2023-04-03T06:36:46;4.67;;;4.67;;
68942;SDS011;60852;52.190;4.422;2023-04-03T06:39:13;4.52;;;4.50;;
68942;SDS011;60852;52.190;4.422;2023-04-03T06:41:41;4.50;;;4.46;;
68942;SDS011;60852;52.190;4.422;2023-04-03T06:44:07;4.69;;;4.67;;
68942;SDS011;60852;52.190;4.422;2023-04-03T06:46:36;4.27;;;4.25;;
68942;SDS011;60852;52.190;4.422;2023-04-03T06:49:03;4.28;;;4.26;;
68942;SDS011;60852;52.190;4.422;2023-04-03T06:51:29;4.12;;;4.08;;
68942;SDS011;60852;52.190;4.422;2023-04-03T06:53:56;4.55;;;4.51;;
68942;SDS011;60852;52.190;4.422;2023-04-03T06:56:23;4.07;;;4.07;;
68942;SDS011;60852;52.190;4.422;2023-04-03T06:58:51;4.49;;;4.49;;
68942;SDS011;60852;52.190;4.422;2023-04-03T07:01:19;4.58;;;4.53;;
68942;SDS011;60852;52.190;4.422;2023-04-03T07:03:46;4.42;;;4.38;;
68942;SDS011;60852;52.190;4.422;2023-04-03T07:06:14;4.28;;;4.25;;
68942;SDS011;60852;52.190;4.422;2023-04-03T07:08:41;4.28;;;4.24;;
68942;SDS011;60852;52.190;4.422;2023-04-03T07:11:07;4.72;;;4.69;;
68942;SDS011;60852;52.190;4.422;2023-04-03T07:13:34;4.59;;;4.58;;
68942;SDS011;60852;52.190;4.422;2023-04-03T07:16:01;4.41;;;4.40;;
68942;SDS011;60852;52.190;4.422;2023-04-03T07:18:28;4.45;;;4.44;;
68942;SDS011;60852;52.190;4.422;2023-04-03T07:20:54;4.70;;;4.70;;
68942;SDS011;60852;52.190;4.422;2023-04-03T07:23:19;4.83;;;4.81;;
68942;SDS011;60852;52.190;4.422;2023-04-03T07:25:46;4.45;;;4.43;;
68942;SDS011;60852;52.190;4.422;2023-04-03T07:28:13;4.30;;;4.28;;
68942;SDS011;60852;52.190;4.422;2023-04-03T07:30:44;4.82;;;4.79;;
68942;SDS011;60852;52.190;4.422;2023-04-03T07:33:14;4.31;;;4.25;;
68942;SDS011;60852;52.190;4.422;2023-04-03T07:35:41;4.69;;;4.62;;
68942;SDS011;60852;52.190;4.422;2023-04-03T07:38:08;4.51;;;4.50;;
68942;SDS011;60852;52.190;4.422;2023-04-03T07:40:35;4.35;;;4.33;;
68942;SDS011;60852;52.190;4.422;2023-04-03T07:43:01;4.77;;;4.76;;
68942;SDS011;60852;52.190;4.422;2023-04-03T07:45:27;4.16;;;4.16;;
68942;SDS011;60852;52.190;4.422;2023-04-03T07:47:53;4.13;;;4.13;;
68942;SDS011;60852;52.190;4.422;2023-04-03T07:50:19;4.15;;;4.14;;
68942;SDS011;60852;52.190;4.422;2023-04-03T07:52:45;4.24;;;4.19;;
68942;SDS011;60852;52.190;4.422;2023-04-03T07:55:11;4.37;;;4.31;;
68942;SDS011;60852;52.190;4.422;2023-04-03T07:57:37;3.94;;;3.91;;
68942;SDS011;60852;52.190;4.422;2023-04-03T08:00:03;3.95;;;3.92;;
68942;SDS011;60852;52.190;4.422;2023-04-03T08:02:30;4.25;;;4.20;;
68942;SDS011;60852;52.190;4.422;2023-04-03T08:05:00;3.96;;;3.91;;
68942;SDS011;60852;52.190;4.422;2023-04-03T08:07:25;3.47;;;3.45;;
68942;SDS011;60852;52.190;4.422;2023-04-03T08:09:51;3.57;;;3.56;;
68942;SDS011;60852;52.190;4.422;2023-04-03T08:12:17;3.94;;;3.91;;
68942;SDS011;60852;52.190;4.422;2023-04-03T08:14:43;3.85;;;3.77;;
68942;SDS011;60852;52.190;4.422;2023-04-03T08:17:09;3.63;;;3.55;;
68942;SDS011;60852;52.190;4.422;2023-04-03T08:19:39;3.48;;;3.40;;
68942;SDS011;60852;52.190;4.422;2023-04-03T08:22:05;3.45;;;3.39;;
68942;SDS011;60852;52.190;4.422;2023-04-03T08:24:34;3.72;;;3.66;;
68942;SDS011;60852;52.190;4.422;2023-04-03T08:26:59;3.50;;;3.46;;
68942;SDS011;60852;52.190;4.422;2023-04-03T08:29:26;3.49;;;3.46;;
68942;SDS011;60852;52.190;4.422;2023-04-03T08:31:51;3.41;;;3.35;;
68942;SDS011;60852;52.190;4.422;2023-04-03T08:34:18;3.59;;;3.52;;
68942;SDS011;60852;52.190;4.422;2023-04-03T08:36:44;3.69;;;3.64;;
68942;SDS011;60852;52.190;4.422;2023-04-03T08:39:10;3.65;;;3.59;;
68942;SDS011;60852;52.190;4.422;2023-04-03T08:41:37;3.18;;;3.11;;
68942;SDS011;60852;52.190;4.422;2023-04-03T08:44:13;3.33;;;3.28;;
68942;SDS011;60852;52.190;4.422;2023-04-03T08:46:48;3.32;;;3.26;;
68942;SDS011;60852;52.190;4.422;2023-04-03T08:49:28;3.23;;;3.15;;
68942;SDS011;60852;52.190;4.422;2023-04-03T08:52:45;3.62;;;3.51;;
68942;SDS011;60852;52.190;4.422;2023-04-03T08:55:46;3.12;;;3.08;;
68942;SDS011;60852;52.190;4.422;2023-04-03T09:00:26;3.00;;;2.96;;
68942;SDS011;60852;52.190;4.422;2023-04-03T09:03:02;2.94;;;2.88;;
68942;SDS011;60852;52.190;4.422;2023-04-03T09:05:45;3.22;;;3.14;;
68942;SDS011;60852;52.190;4.422;2023-04-03T09:08:23;2.96;;;2.88;;
68942;SDS011;60852;52.190;4.422;2023-04-03T09:11:16;2.90;;;2.83;;
68942;SDS011;60852;52.190;4.422;2023-04-03T09:14:02;2.87;;;2.81;;
68942;SDS011;60852;52.190;4.422;2023-04-03T09:17:03;2.61;;;2.52;;
68942;SDS011;60852;52.190;4.422;2023-04-03T09:19:57;2.83;;;2.77;;
68942;SDS011;60852;52.190;4.422;2023-04-03T09:22:31;2.62;;;2.56;;
68942;SDS011;60852;52.190;4.422;2023-04-03T09:25:11;2.75;;;2.69;;
68942;SDS011;60852;52.190;4.422;2023-04-03T09:27:59;2.60;;;2.54;;
68942;SDS011;60852;52.190;4.422;2023-04-03T09:30:25;2.42;;;2.37;;
68942;SDS011;60852;52.190;4.422;2023-04-03T09:32:53;2.33;;;2.30;;
68942;SDS011;60852;52.190;4.422;2023-04-03T09:35:34;2.46;;;2.45;;
68942;SDS011;60852;52.190;4.422;2023-04-03T09:38:22;2.24;;;2.22;;
68942;SDS011;60852;52.190;4.422;2023-04-03T09:43:52;2.33;;;2.30;;
68942;SDS011;60852;52.190;4.422;2023-04-03T09:46:37;2.31;;;2.28;;
68942;SDS011;60852;52.190;4.422;2023-04-03T09:49:04;2.16;;;2.13;;
68942;SDS011;60852;52.190;4.422;2023-04-03T09:51:31;2.27;;;2.24;;
68942;SDS011;60852;52.190;4.422;2023-04-03T09:53:57;2.41;;;2.38;;
68942;SDS011;60852;52.190;4.422;2023-04-03T09:56:27;2.63;;;2.60;;
68942;SDS011;60852;52.190;4.422;2023-04-03T10:01:29;2.19;;;2.16;;
68942;SDS011;60852;52.190;4.422;2023-04-03T10:04:12;2.17;;;2.13;;
68942;SDS011;60852;52.190;4.422;2023-04-03T10:23:15;1.82;;;1.81;;
68942;SDS011;60852;52.190;4.422;2023-04-03T10:31:20;1.96;;;1.94;;
68942;SDS011;60852;52.190;4.422;2023-04-03T10:36:53;2.09;;;2.07;;
68942;SDS011;60852;52.190;4.422;2023-04-03T10:39:53;1.94;;;1.91;;
68942;SDS011;60852;52.190;4.422;2023-04-03T10:42:52;1.73;;;1.71;;
68942;SDS011;60852;52.190;4.422;2023-04-03T10:45:24;1.62;;;1.59;;
68942;SDS011;60852;52.190;4.422;2023-04-03T10:53:27;1.68;;;1.66;;
68942;SDS011;60852;52.190;4.422;2023-04-03T10:58:40;1.67;;;1.64;;
68942;SDS011;60852;52.190;4.422;2023-04-03T11:01:13;1.71;;;1.68;;
68942;SDS011;60852;52.190;4.422;2023-04-03T11:03:46;1.64;;;1.62;;
68942;SDS011;60852;52.190;4.422;2023-04-03T11:06:19;1.62;;;1.60;;
68942;SDS011;60852;52.190;4.422;2023-04-03T11:08:51;1.42;;;1.40;;
68942;SDS011;60852;52.190;4.422;2023-04-03T11:11:29;1.63;;;1.60;;
68942;SDS011;60852;52.190;4.422;2023-04-03T11:16:28;1.26;;;1.25;;
68942;SDS011;60852;52.190;4.422;2023-04-03T11:19:07;1.56;;;1.55;;
68942;SDS011;60852;52.190;4.422;2023-04-03T11:21:42;1.42;;;1.41;;
68942;SDS011;60852;52.190;4.422;2023-04-03T11:24:22;1.34;;;1.32;;
68942;SDS011;60852;52.190;4.422;2023-04-03T11:26:55;1.39;;;1.37;;
68942;SDS011;60852;52.190;4.422;2023-04-03T11:29:23;1.29;;;1.28;;
68942;SDS011;60852;52.190;4.422;2023-04-03T11:35:02;1.40;;;1.37;;
68942;SDS011;60852;52.190;4.422;2023-04-03T11:37:37;1.29;;;1.25;;
68942;SDS011;60852;52.190;4.422;2023-04-03T11:42:39;1.35;;;1.32;;
68942;SDS011;60852;52.190;4.422;2023-04-03T11:47:49;1.39;;;1.37;;
68942;SDS011;60852;52.190;4.422;2023-04-03T11:50:45;1.25;;;1.21;;
68942;SDS011;60852;52.190;4.422;2023-04-03T11:55:42;1.28;;;1.24;;
68942;SDS011;60852;52.190;4.422;2023-04-03T12:08:36;1.27;;;1.24;;
68942;SDS011;60852;52.190;4.422;2023-04-03T12:21:13;1.17;;;1.17;;
68942;SDS011;60852;52.190;4.422;2023-04-03T12:26:34;1.00;;;0.99;;
68942;SDS011;60852;52.190;4.422;2023-04-03T12:29:13;1.19;;;1.18;;
68942;SDS011;60852;52.190;4.422;2023-04-03T12:46:07;2.31;;;2.31;;
68942;SDS011;60852;52.190;4.422;2023-04-03T12:48:51;1.54;;;1.54;;
68942;SDS011;60852;52.190;4.422;2023-04-03T12:51:39;2.74;;;2.74;;
68942;SDS011;60852;52.190;4.422;2023-04-03T12:54:15;5.24;;;5.12;;
68942;SDS011;60852;52.190;4.422;2023-04-03T12:56:44;3.58;;;3.40;;
68942;SDS011;60852;52.190;4.422;2023-04-03T12:59:20;2.53;;;2.47;;
68942;SDS011;60852;52.190;4.422;2023-04-03T13:01:56;1.77;;;1.74;;
68942;SDS011;60852;52.190;4.422;2023-04-03T13:04:24;2.63;;;2.61;;
68942;SDS011;60852;52.190;4.422;2023-04-03T13:06:50;1.60;;;1.60;;
68942;SDS011;60852;52.190;4.422;2023-04-03T13:09:26;1.72;;;1.72;;
68942;SDS011;60852;52.190;4.422;2023-04-03T13:11:58;1.33;;;1.33;;
68942;SDS011;60852;52.190;4.422;2023-04-03T13:14:35;1.61;;;1.59;;
68942;SDS011;60852;52.190;4.422;2023-04-03T13:17:14;1.48;;;1.47;;
68942;SDS011;60852;52.190;4.422;2023-04-03T13:19:41;1.40;;;1.39;;
68942;SDS011;60852;52.190;4.422;2023-04-03T13:22:11;1.52;;;1.51;;
68942;SDS011;60852;52.190;4.422;2023-04-03T13:24:55;1.68;;;1.67;;
68942;SDS011;60852;52.190;4.422;2023-04-03T13:27:25;1.87;;;1.86;;
68942;SDS011;60852;52.190;4.422;2023-04-03T13:29:52;1.46;;;1.45;;
68942;SDS011;60852;52.190;4.422;2023-04-03T13:32:22;2.23;;;2.22;;
68942;SDS011;60852;52.190;4.422;2023-04-03T13:34:51;1.72;;;1.72;;
68942;SDS011;60852;52.190;4.422;2023-04-03T13:37:22;1.79;;;1.78;;
68942;SDS011;60852;52.190;4.422;2023-04-03T13:40:23;1.57;;;1.56;;
68942;SDS011;60852;52.190;4.422;2023-04-03T13:42:41;1.53;;;1.52;;
68942;SDS011;60852;52.190;4.422;2023-04-03T13:45:21;1.68;;;1.66;;
68942;SDS011;60852;52.190;4.422;2023-04-03T13:47:49;1.74;;;1.71;;
68942;SDS011;60852;52.190;4.422;2023-04-03T13:50:19;2.03;;;2.01;;
68942;SDS011;60852;52.190;4.422;2023-04-03T13:52:48;1.84;;;1.83;;
68942;SDS011;60852;52.190;4.422;2023-04-03T13:55:20;1.66;;;1.64;;
68942;SDS011;60852;52.190;4.422;2023-04-03T13:57:54;1.81;;;1.79;;
68942;SDS011;60852;52.190;4.422;2023-04-03T14:02:54;1.98;;;1.95;;
68942;SDS011;60852;52.190;4.422;2023-04-03T14:05:21;1.65;;;1.62;;
68942;SDS011;60852;52.190;4.422;2023-04-03T14:07:50;1.69;;;1.67;;
68942;SDS011;60852;52.190;4.422;2023-04-03T14:10:15;5.36;;;5.28;;
68942;SDS011;60852;52.190;4.422;2023-04-03T14:12:41;6.14;;;6.01;;
68942;SDS011;60852;52.190;4.422;2023-04-03T14:17:48;2.45;;;2.44;;
68942;SDS011;60852;52.190;4.422;2023-04-03T14:20:15;3.20;;;3.20;;
68942;SDS011;60852;52.190;4.422;2023-04-03T14:22:44;2.59;;;2.59;;
68942;SDS011;60852;52.190;4.422;2023-04-03T14:25:10;1.77;;;1.77;;
68942;SDS011;60852;52.190;4.422;2023-04-03T14:27:37;2.18;;;2.18;;
68942;SDS011;60852;52.190;4.422;2023-04-03T14:30:05;1.93;;;1.93;;
68942;SDS011;60852;52.190;4.422;2023-04-03T14:32:34;2.13;;;2.13;;
68942;SDS011;60852;52.190;4.422;2023-04-03T14:34:59;1.98;;;1.97;;
68942;SDS011;60852;52.190;4.422;2023-04-03T14:37:27;2.16;;;2.15;;
68942;SDS011;60852;52.190;4.422;2023-04-03T14:39:55;1.81;;;1.78;;
68942;SDS011;60852;52.190;4.422;2023-04-03T14:42:29;1.97;;;1.93;;
68942;SDS011;60852;52.190;4.422;2023-04-03T14:44:58;2.02;;;1.99;;
68942;SDS011;60852;52.190;4.422;2023-04-03T14:47:27;1.92;;;1.89;;
68942;SDS011;60852;52.190;4.422;2023-04-03T14:49:54;2.11;;;2.09;;
68942;SDS011;60852;52.190;4.422;2023-04-03T14:52:27;2.00;;;1.99;;
68942;SDS011;60852;52.190;4.422;2023-04-03T14:54:59;2.40;;;2.39;;
68942;SDS011;60852;52.190;4.422;2023-04-03T14:57:27;2.01;;;2.00;;
68942;SDS011;60852;52.190;4.422;2023-04-03T14:59:54;2.05;;;2.02;;
68942;SDS011;60852;52.190;4.422;2023-04-03T15:02:27;1.92;;;1.89;;
68942;SDS011;60852;52.190;4.422;2023-04-03T15:04:55;1.96;;;1.93;;
68942;SDS011;60852;52.190;4.422;2023-04-03T15:07:22;1.90;;;1.88;;
68942;SDS011;60852;52.190;4.422;2023-04-03T15:09:51;1.95;;;1.93;;
68942;SDS011;60852;52.190;4.422;2023-04-03T15:12:17;2.13;;;2.12;;
68942;SDS011;60852;52.190;4.422;2023-04-03T15:14:43;2.15;;;2.13;;
68942;SDS011;60852;52.190;4.422;2023-04-03T15:17:10;5.27;;;5.24;;
68942;SDS011;60852;52.190;4.422;2023-04-03T15:19:41;2.43;;;2.42;;
68942;SDS011;60852;52.190;4.422;2023-04-03T15:22:08;3.36;;;3.35;;
68942;SDS011;60852;52.190;4.422;2023-04-03T15:24:39;2.31;;;2.31;;
68942;SDS011;60852;52.190;4.422;2023-04-03T15:27:05;2.28;;;2.27;;
68942;SDS011;60852;52.190;4.422;2023-04-03T15:29:31;2.84;;;2.83;;
68942;SDS011;60852;52.190;4.422;2023-04-03T15:31:57;2.68;;;2.67;;
68942;SDS011;60852;52.190;4.422;2023-04-03T15:34:22;2.40;;;2.39;;
68942;SDS011;60852;52.190;4.422;2023-04-03T15:36:48;2.47;;;2.46;;
68942;SDS011;60852;52.190;4.422;2023-04-03T15:39:13;2.48;;;2.48;;
68942;SDS011;60852;52.190;4.422;2023-04-03T15:41:39;2.36;;;2.36;;
68942;SDS011;60852;52.190;4.422;2023-04-03T15:44:05;2.09;;;2.08;;
68942;SDS011;60852;52.190;4.422;2023-04-03T15:46:30;2.27;;;2.25;;
68942;SDS011;60852;52.190;4.422;2023-04-03T15:48:57;2.30;;;2.28;;
68942;SDS011;60852;52.190;4.422;2023-04-03T15:51:22;2.40;;;2.38;;
68942;SDS011;60852;52.190;4.422;2023-04-03T15:53:48;2.22;;;2.21;;
68942;SDS011;60852;52.190;4.422;2023-04-03T15:56:13;2.45;;;2.42;;
68942;SDS011;60852;52.190;4.422;2023-04-03T15:58:38;2.29;;;2.27;;
68942;SDS011;60852;52.190;4.422;2023-04-03T16:01:05;2.37;;;2.36;;
68942;SDS011;60852;52.190;4.422;2023-04-03T16:03:31;2.78;;;2.77;;
68942;SDS011;60852;52.190;4.422;2023-04-03T16:05:56;2.53;;;2.53;;
68942;SDS011;60852;52.190;4.422;2023-04-03T16:08:22;3.33;;;3.31;;
68942;SDS011;60852;52.190;4.422;2023-04-03T16:10:48;2.79;;;2.76;;
68942;SDS011;60852;52.190;4.422;2023-04-03T16:13:14;2.67;;;2.66;;
68942;SDS011;60852;52.190;4.422;2023-04-03T16:15:40;2.94;;;2.93;;
68942;SDS011;60852;52.190;4.422;2023-04-03T16:18:06;2.93;;;2.92;;
68942;SDS011;60852;52.190;4.422;2023-04-03T16:20:33;2.49;;;2.47;;
68942;SDS011;60852;52.190;4.422;2023-04-03T16:23:00;2.94;;;2.86;;
68942;SDS011;60852;52.190;4.422;2023-04-03T16:25:26;2.54;;;2.47;;
68942;SDS011;60852;52.190;4.422;2023-04-03T16:27:52;2.79;;;2.70;;
68942;SDS011;60852;52.190;4.422;2023-04-03T16:30:17;3.02;;;2.94;;
68942;SDS011;60852;52.190;4.422;2023-04-03T16:32:43;2.56;;;2.53;;
68942;SDS011;60852;52.190;4.422;2023-04-03T16:35:09;2.40;;;2.38;;
68942;SDS011;60852;52.190;4.422;2023-04-03T16:37:36;2.41;;;2.40;;
68942;SDS011;60852;52.190;4.422;2023-04-03T16:40:02;2.24;;;2.22;;
68942;SDS011;60852;52.190;4.422;2023-04-03T16:42:28;2.19;;;2.17;;